Kennebec, South Dakota
Current Conditions -  °F | °C
As of 2:15 PM on Sunday 25 Jan 2015 (Local Time) from K9V9 Reporting Station
Overcast Overcast  
Wind Chill: 31°   Ceiling: 1800
Heat Index: 38°   Visibility: 10mi
Dew Point: 34°   Wind: 9mph
Humidity: 87%   Direction: 320°NW
Pressure: 30.02"   Gusts: NA
Location:  43.9°N, 99.86°W
Report Text: K9V9 252015Z AUTO 32008KT 10SM OVC018 03/01 A3002 RMK AO2 T00320012
Loading
Personal Weather Stations






























Interactive Weather Map New forecast layout! Learn more

10-Day Weather Forecast

Advertisements
Track Severe Weather on mobile